sensor_id;sensor_type;location;lat;lon;timestamp;P1;durP1;ratioP1;P2;durP2;ratioP2
13230;SDS011;6681;53.254;10.398;2023-12-20T00:01:35;8.23;;;2.57;;
13230;SDS011;6681;53.254;10.398;2023-12-20T00:04:01;7.80;;;2.40;;
13230;SDS011;6681;53.254;10.398;2023-12-20T00:06:27;11.70;;;2.93;;
13230;SDS011;6681;53.254;10.398;2023-12-20T00:08:53;6.00;;;2.43;;
13230;SDS011;6681;53.254;10.398;2023-12-20T00:11:18;15.30;;;3.13;;
13230;SDS011;6681;53.254;10.398;2023-12-20T00:13:44;6.57;;;2.17;;
13230;SDS011;6681;53.254;10.398;2023-12-20T00:16:09;15.60;;;2.70;;
13230;SDS011;6681;53.254;10.398;2023-12-20T00:18:35;10.57;;;2.50;;
13230;SDS011;6681;53.254;10.398;2023-12-20T00:21:01;10.67;;;1.90;;
13230;SDS011;6681;53.254;10.398;2023-12-20T00:23:26;9.43;;;2.17;;
13230;SDS011;6681;53.254;10.398;2023-12-20T00:25:52;10.87;;;3.37;;
13230;SDS011;6681;53.254;10.398;2023-12-20T00:28:17;7.77;;;2.70;;
13230;SDS011;6681;53.254;10.398;2023-12-20T00:30:43;8.20;;;2.37;;
13230;SDS011;6681;53.254;10.398;2023-12-20T00:33:12;7.10;;;2.50;;
13230;SDS011;6681;53.254;10.398;2023-12-20T00:35:37;7.57;;;2.40;;
13230;SDS011;6681;53.254;10.398;2023-12-20T00:38:06;9.17;;;2.13;;
13230;SDS011;6681;53.254;10.398;2023-12-20T00:40:33;10.23;;;2.00;;
13230;SDS011;6681;53.254;10.398;2023-12-20T00:42:59;7.80;;;2.20;;
13230;SDS011;6681;53.254;10.398;2023-12-20T00:45:31;13.27;;;2.93;;
13230;SDS011;6681;53.254;10.398;2023-12-20T00:47:57;8.00;;;1.67;;
13230;SDS011;6681;53.254;10.398;2023-12-20T00:50:24;19.53;;;3.43;;
13230;SDS011;6681;53.254;10.398;2023-12-20T00:52:49;9.40;;;2.30;;
13230;SDS011;6681;53.254;10.398;2023-12-20T00:55:15;6.13;;;1.97;;
13230;SDS011;6681;53.254;10.398;2023-12-20T00:57:40;6.27;;;2.27;;
13230;SDS011;6681;53.254;10.398;2023-12-20T01:00:06;12.13;;;3.07;;
13230;SDS011;6681;53.254;10.398;2023-12-20T01:02:34;9.83;;;1.40;;
13230;SDS011;6681;53.254;10.398;2023-12-20T01:05:00;7.90;;;2.10;;
13230;SDS011;6681;53.254;10.398;2023-12-20T01:07:26;14.30;;;2.23;;
13230;SDS011;6681;53.254;10.398;2023-12-20T01:09:51;10.37;;;1.83;;
13230;SDS011;6681;53.254;10.398;2023-12-20T01:12:17;14.73;;;3.43;;
13230;SDS011;6681;53.254;10.398;2023-12-20T01:14:42;12.73;;;2.23;;
13230;SDS011;6681;53.254;10.398;2023-12-20T01:17:08;12.03;;;2.67;;
13230;SDS011;6681;53.254;10.398;2023-12-20T01:19:34;8.83;;;2.47;;
13230;SDS011;6681;53.254;10.398;2023-12-20T01:22:00;7.13;;;2.10;;
13230;SDS011;6681;53.254;10.398;2023-12-20T01:24:25;10.30;;;2.30;;
13230;SDS011;6681;53.254;10.398;2023-12-20T01:26:51;14.83;;;2.70;;
13230;SDS011;6681;53.254;10.398;2023-12-20T01:29:16;22.97;;;4.67;;
13230;SDS011;6681;53.254;10.398;2023-12-20T01:31:42;7.57;;;1.90;;
13230;SDS011;6681;53.254;10.398;2023-12-20T01:34:08;10.23;;;2.30;;
13230;SDS011;6681;53.254;10.398;2023-12-20T01:36:33;10.00;;;2.13;;
13230;SDS011;6681;53.254;10.398;2023-12-20T01:38:59;14.13;;;2.20;;
13230;SDS011;6681;53.254;10.398;2023-12-20T01:41:24;7.37;;;2.53;;
13230;SDS011;6681;53.254;10.398;2023-12-20T01:43:50;17.60;;;2.37;;
13230;SDS011;6681;53.254;10.398;2023-12-20T01:46:16;9.37;;;2.07;;
13230;SDS011;6681;53.254;10.398;2023-12-20T01:48:42;8.90;;;2.00;;
13230;SDS011;6681;53.254;10.398;2023-12-20T01:51:08;16.33;;;2.50;;
13230;SDS011;6681;53.254;10.398;2023-12-20T01:53:34;8.60;;;1.77;;
13230;SDS011;6681;53.254;10.398;2023-12-20T01:56:00;5.90;;;2.07;;
13230;SDS011;6681;53.254;10.398;2023-12-20T01:58:26;10.20;;;2.30;;
13230;SDS011;6681;53.254;10.398;2023-12-20T02:00:52;10.97;;;2.40;;
13230;SDS011;6681;53.254;10.398;2023-12-20T02:03:19;6.13;;;2.33;;
13230;SDS011;6681;53.254;10.398;2023-12-20T02:05:45;11.60;;;2.57;;
13230;SDS011;6681;53.254;10.398;2023-12-20T02:08:12;10.77;;;2.20;;
13230;SDS011;6681;53.254;10.398;2023-12-20T02:10:37;12.87;;;2.60;;
13230;SDS011;6681;53.254;10.398;2023-12-20T02:13:03;11.00;;;3.23;;
13230;SDS011;6681;53.254;10.398;2023-12-20T02:15:29;10.13;;;3.53;;
13230;SDS011;6681;53.254;10.398;2023-12-20T02:17:55;15.73;;;3.10;;
13230;SDS011;6681;53.254;10.398;2023-12-20T02:20:21;7.93;;;2.60;;
13230;SDS011;6681;53.254;10.398;2023-12-20T02:22:46;8.60;;;2.67;;
13230;SDS011;6681;53.254;10.398;2023-12-20T02:25:12;10.17;;;2.63;;
13230;SDS011;6681;53.254;10.398;2023-12-20T02:27:38;9.57;;;2.23;;
13230;SDS011;6681;53.254;10.398;2023-12-20T02:30:05;8.67;;;2.63;;
13230;SDS011;6681;53.254;10.398;2023-12-20T02:32:31;10.03;;;2.80;;
13230;SDS011;6681;53.254;10.398;2023-12-20T02:35:02;10.77;;;3.83;;
13230;SDS011;6681;53.254;10.398;2023-12-20T02:37:28;11.50;;;4.07;;
13230;SDS011;6681;53.254;10.398;2023-12-20T02:39:54;14.87;;;4.27;;
13230;SDS011;6681;53.254;10.398;2023-12-20T02:42:19;12.07;;;4.30;;
13230;SDS011;6681;53.254;10.398;2023-12-20T02:44:48;14.53;;;3.80;;
13230;SDS011;6681;53.254;10.398;2023-12-20T02:47:14;10.97;;;4.10;;
13230;SDS011;6681;53.254;10.398;2023-12-20T02:49:39;8.43;;;3.30;;
13230;SDS011;6681;53.254;10.398;2023-12-20T02:52:05;10.20;;;4.43;;
13230;SDS011;6681;53.254;10.398;2023-12-20T02:54:30;14.70;;;4.77;;
13230;SDS011;6681;53.254;10.398;2023-12-20T02:56:56;8.33;;;4.43;;
13230;SDS011;6681;53.254;10.398;2023-12-20T02:59:22;15.87;;;4.80;;
13230;SDS011;6681;53.254;10.398;2023-12-20T03:01:47;14.33;;;5.23;;
13230;SDS011;6681;53.254;10.398;2023-12-20T03:04:13;21.80;;;6.13;;
13230;SDS011;6681;53.254;10.398;2023-12-20T03:06:38;12.87;;;4.40;;
13230;SDS011;6681;53.254;10.398;2023-12-20T03:09:04;9.83;;;3.87;;
13230;SDS011;6681;53.254;10.398;2023-12-20T03:11:30;13.77;;;5.60;;
13230;SDS011;6681;53.254;10.398;2023-12-20T03:13:56;14.03;;;5.10;;
13230;SDS011;6681;53.254;10.398;2023-12-20T03:16:22;12.27;;;4.67;;
13230;SDS011;6681;53.254;10.398;2023-12-20T03:18:48;16.80;;;5.23;;
13230;SDS011;6681;53.254;10.398;2023-12-20T03:21:14;14.80;;;4.70;;
13230;SDS011;6681;53.254;10.398;2023-12-20T03:23:40;14.77;;;4.90;;
13230;SDS011;6681;53.254;10.398;2023-12-20T03:26:09;13.83;;;4.50;;
13230;SDS011;6681;53.254;10.398;2023-12-20T03:28:35;11.87;;;4.50;;
13230;SDS011;6681;53.254;10.398;2023-12-20T03:31:01;12.30;;;3.80;;
13230;SDS011;6681;53.254;10.398;2023-12-20T03:33:27;18.10;;;4.33;;
13230;SDS011;6681;53.254;10.398;2023-12-20T03:35:53;12.60;;;3.87;;
13230;SDS011;6681;53.254;10.398;2023-12-20T03:38:19;7.57;;;4.07;;
13230;SDS011;6681;53.254;10.398;2023-12-20T03:40:45;10.77;;;3.47;;
13230;SDS011;6681;53.254;10.398;2023-12-20T03:43:11;21.30;;;5.07;;
13230;SDS011;6681;53.254;10.398;2023-12-20T03:45:36;19.17;;;4.03;;
13230;SDS011;6681;53.254;10.398;2023-12-20T03:48:02;6.23;;;2.70;;
13230;SDS011;6681;53.254;10.398;2023-12-20T03:50:29;9.03;;;3.43;;
13230;SDS011;6681;53.254;10.398;2023-12-20T03:52:54;13.97;;;3.17;;
13230;SDS011;6681;53.254;10.398;2023-12-20T03:55:20;10.23;;;3.37;;
13230;SDS011;6681;53.254;10.398;2023-12-20T03:57:45;14.87;;;4.63;;
13230;SDS011;6681;53.254;10.398;2023-12-20T04:00:11;9.33;;;3.33;;
13230;SDS011;6681;53.254;10.398;2023-12-20T04:02:40;9.87;;;2.87;;
13230;SDS011;6681;53.254;10.398;2023-12-20T04:05:07;12.47;;;3.73;;
13230;SDS011;6681;53.254;10.398;2023-12-20T04:07:34;9.07;;;2.70;;
13230;SDS011;6681;53.254;10.398;2023-12-20T04:10:00;13.97;;;3.50;;
13230;SDS011;6681;53.254;10.398;2023-12-20T04:12:29;7.10;;;3.03;;
13230;SDS011;6681;53.254;10.398;2023-12-20T04:14:56;6.27;;;2.90;;
13230;SDS011;6681;53.254;10.398;2023-12-20T04:17:21;16.43;;;3.37;;
13230;SDS011;6681;53.254;10.398;2023-12-20T04:19:50;24.47;;;3.83;;
13230;SDS011;6681;53.254;10.398;2023-12-20T04:22:17;11.17;;;3.50;;
13230;SDS011;6681;53.254;10.398;2023-12-20T04:24:43;12.67;;;4.80;;
13230;SDS011;6681;53.254;10.398;2023-12-20T04:27:09;14.63;;;4.37;;
13230;SDS011;6681;53.254;10.398;2023-12-20T04:29:34;12.50;;;4.50;;
13230;SDS011;6681;53.254;10.398;2023-12-20T04:32:00;15.93;;;3.40;;
13230;SDS011;6681;53.254;10.398;2023-12-20T04:34:26;7.03;;;2.93;;
13230;SDS011;6681;53.254;10.398;2023-12-20T04:36:52;6.87;;;2.97;;
13230;SDS011;6681;53.254;10.398;2023-12-20T04:39:18;8.73;;;3.30;;
13230;SDS011;6681;53.254;10.398;2023-12-20T04:41:43;23.37;;;3.43;;
13230;SDS011;6681;53.254;10.398;2023-12-20T04:44:09;11.40;;;3.27;;
13230;SDS011;6681;53.254;10.398;2023-12-20T04:46:35;7.13;;;2.87;;
13230;SDS011;6681;53.254;10.398;2023-12-20T04:49:00;7.00;;;3.70;;
13230;SDS011;6681;53.254;10.398;2023-12-20T04:51:26;9.40;;;3.53;;
13230;SDS011;6681;53.254;10.398;2023-12-20T04:53:52;11.13;;;3.50;;
13230;SDS011;6681;53.254;10.398;2023-12-20T04:56:17;8.07;;;3.57;;
13230;SDS011;6681;53.254;10.398;2023-12-20T04:58:43;21.13;;;3.67;;
13230;SDS011;6681;53.254;10.398;2023-12-20T05:01:09;17.03;;;4.03;;
13230;SDS011;6681;53.254;10.398;2023-12-20T05:03:35;12.67;;;2.77;;
13230;SDS011;6681;53.254;10.398;2023-12-20T05:06:01;16.47;;;3.67;;
13230;SDS011;6681;53.254;10.398;2023-12-20T05:08:26;8.63;;;3.20;;
13230;SDS011;6681;53.254;10.398;2023-12-20T05:10:55;15.37;;;3.87;;
13230;SDS011;6681;53.254;10.398;2023-12-20T05:13:21;10.70;;;3.90;;
13230;SDS011;6681;53.254;10.398;2023-12-20T05:15:47;11.83;;;3.77;;
13230;SDS011;6681;53.254;10.398;2023-12-20T05:18:13;19.40;;;4.87;;
13230;SDS011;6681;53.254;10.398;2023-12-20T05:20:39;13.67;;;4.07;;
13230;SDS011;6681;53.254;10.398;2023-12-20T05:23:05;17.43;;;3.87;;
13230;SDS011;6681;53.254;10.398;2023-12-20T05:25:30;11.20;;;4.97;;
13230;SDS011;6681;53.254;10.398;2023-12-20T05:27:56;15.90;;;4.47;;
13230;SDS011;6681;53.254;10.398;2023-12-20T05:30:22;8.10;;;3.43;;
13230;SDS011;6681;53.254;10.398;2023-12-20T05:32:47;8.73;;;3.63;;
13230;SDS011;6681;53.254;10.398;2023-12-20T05:35:13;8.83;;;3.47;;
13230;SDS011;6681;53.254;10.398;2023-12-20T05:37:40;13.53;;;3.50;;
13230;SDS011;6681;53.254;10.398;2023-12-20T05:40:06;10.63;;;4.77;;
13230;SDS011;6681;53.254;10.398;2023-12-20T05:42:35;14.97;;;4.13;;
13230;SDS011;6681;53.254;10.398;2023-12-20T05:45:01;16.90;;;4.43;;
13230;SDS011;6681;53.254;10.398;2023-12-20T05:47:26;17.10;;;5.37;;
13230;SDS011;6681;53.254;10.398;2023-12-20T05:49:52;17.40;;;3.73;;
13230;SDS011;6681;53.254;10.398;2023-12-20T05:52:18;17.17;;;4.47;;
13230;SDS011;6681;53.254;10.398;2023-12-20T05:54:43;11.80;;;4.33;;
13230;SDS011;6681;53.254;10.398;2023-12-20T05:57:09;16.27;;;4.60;;
13230;SDS011;6681;53.254;10.398;2023-12-20T05:59:35;12.57;;;3.77;;
13230;SDS011;6681;53.254;10.398;2023-12-20T06:02:00;14.40;;;4.17;;
13230;SDS011;6681;53.254;10.398;2023-12-20T06:04:26;16.07;;;3.57;;
13230;SDS011;6681;53.254;10.398;2023-12-20T06:06:51;10.67;;;3.93;;
13230;SDS011;6681;53.254;10.398;2023-12-20T06:09:17;9.07;;;3.13;;
13230;SDS011;6681;53.254;10.398;2023-12-20T06:11:42;12.50;;;3.33;;
13230;SDS011;6681;53.254;10.398;2023-12-20T06:14:08;9.90;;;3.33;;
13230;SDS011;6681;53.254;10.398;2023-12-20T06:16:34;7.27;;;3.43;;
13230;SDS011;6681;53.254;10.398;2023-12-20T06:18:59;11.13;;;4.30;;
13230;SDS011;6681;53.254;10.398;2023-12-20T06:21:25;7.60;;;4.03;;
13230;SDS011;6681;53.254;10.398;2023-12-20T06:23:50;16.17;;;6.33;;
13230;SDS011;6681;53.254;10.398;2023-12-20T06:26:16;11.40;;;4.70;;
13230;SDS011;6681;53.254;10.398;2023-12-20T06:28:42;16.93;;;5.73;;
13230;SDS011;6681;53.254;10.398;2023-12-20T06:31:07;26.17;;;5.90;;
13230;SDS011;6681;53.254;10.398;2023-12-20T06:33:33;9.87;;;4.67;;
13230;SDS011;6681;53.254;10.398;2023-12-20T06:35:59;9.27;;;4.77;;
13230;SDS011;6681;53.254;10.398;2023-12-20T06:38:25;13.73;;;4.07;;
13230;SDS011;6681;53.254;10.398;2023-12-20T06:40:50;15.90;;;5.00;;
13230;SDS011;6681;53.254;10.398;2023-12-20T06:43:16;21.53;;;5.10;;
13230;SDS011;6681;53.254;10.398;2023-12-20T06:45:41;8.60;;;3.70;;
13230;SDS011;6681;53.254;10.398;2023-12-20T06:48:07;16.87;;;4.60;;
13230;SDS011;6681;53.254;10.398;2023-12-20T06:50:33;25.57;;;5.60;;
13230;SDS011;6681;53.254;10.398;2023-12-20T06:52:58;11.60;;;3.97;;
13230;SDS011;6681;53.254;10.398;2023-12-20T06:55:24;21.60;;;5.50;;
13230;SDS011;6681;53.254;10.398;2023-12-20T06:57:49;17.30;;;4.97;;
13230;SDS011;6681;53.254;10.398;2023-12-20T07:00:15;16.47;;;4.63;;
13230;SDS011;6681;53.254;10.398;2023-12-20T07:02:41;12.30;;;4.47;;
13230;SDS011;6681;53.254;10.398;2023-12-20T07:05:07;17.03;;;4.57;;
13230;SDS011;6681;53.254;10.398;2023-12-20T07:07:32;12.93;;;5.13;;
13230;SDS011;6681;53.254;10.398;2023-12-20T07:09:58;9.90;;;5.43;;
13230;SDS011;6681;53.254;10.398;2023-12-20T07:12:24;14.17;;;4.80;;
13230;SDS011;6681;53.254;10.398;2023-12-20T07:14:49;10.63;;;3.87;;
13230;SDS011;6681;53.254;10.398;2023-12-20T07:17:15;14.57;;;4.27;;
13230;SDS011;6681;53.254;10.398;2023-12-20T07:19:41;14.13;;;4.57;;
13230;SDS011;6681;53.254;10.398;2023-12-20T07:22:07;17.43;;;5.23;;
13230;SDS011;6681;53.254;10.398;2023-12-20T07:24:33;15.93;;;3.60;;
13230;SDS011;6681;53.254;10.398;2023-12-20T07:26:59;17.10;;;4.73;;
13230;SDS011;6681;53.254;10.398;2023-12-20T07:29:25;16.33;;;4.90;;
13230;SDS011;6681;53.254;10.398;2023-12-20T07:31:52;19.33;;;4.47;;
13230;SDS011;6681;53.254;10.398;2023-12-20T07:34:18;12.37;;;3.63;;
13230;SDS011;6681;53.254;10.398;2023-12-20T07:36:45;15.00;;;3.87;;
13230;SDS011;6681;53.254;10.398;2023-12-20T07:39:10;15.33;;;4.30;;
13230;SDS011;6681;53.254;10.398;2023-12-20T07:41:36;13.43;;;4.50;;
13230;SDS011;6681;53.254;10.398;2023-12-20T07:44:02;15.60;;;4.30;;
13230;SDS011;6681;53.254;10.398;2023-12-20T07:46:29;17.77;;;5.30;;
13230;SDS011;6681;53.254;10.398;2023-12-20T07:48:54;14.53;;;4.07;;
13230;SDS011;6681;53.254;10.398;2023-12-20T07:51:20;13.50;;;3.87;;
13230;SDS011;6681;53.254;10.398;2023-12-20T07:53:46;23.70;;;4.80;;
13230;SDS011;6681;53.254;10.398;2023-12-20T07:58:41;10.37;;;3.93;;
13230;SDS011;6681;53.254;10.398;2023-12-20T08:01:06;15.73;;;3.60;;
13230;SDS011;6681;53.254;10.398;2023-12-20T08:03:32;18.03;;;3.20;;
13230;SDS011;6681;53.254;10.398;2023-12-20T08:05:57;15.03;;;4.17;;
13230;SDS011;6681;53.254;10.398;2023-12-20T08:08:24;14.93;;;4.60;;
13230;SDS011;6681;53.254;10.398;2023-12-20T08:10:53;18.13;;;4.40;;
13230;SDS011;6681;53.254;10.398;2023-12-20T08:13:19;17.83;;;5.20;;
13230;SDS011;6681;53.254;10.398;2023-12-20T08:15:44;11.70;;;3.43;;
13230;SDS011;6681;53.254;10.398;2023-12-20T08:18:10;21.57;;;4.60;;
13230;SDS011;6681;53.254;10.398;2023-12-20T08:20:36;22.30;;;4.70;;
13230;SDS011;6681;53.254;10.398;2023-12-20T08:23:01;15.70;;;4.50;;
13230;SDS011;6681;53.254;10.398;2023-12-20T08:25:27;21.00;;;4.43;;
13230;SDS011;6681;53.254;10.398;2023-12-20T08:27:53;10.47;;;3.37;;
13230;SDS011;6681;53.254;10.398;2023-12-20T08:30:18;23.13;;;4.23;;
13230;SDS011;6681;53.254;10.398;2023-12-20T08:32:47;13.20;;;4.37;;
13230;SDS011;6681;53.254;10.398;2023-12-20T08:35:13;12.27;;;4.53;;
13230;SDS011;6681;53.254;10.398;2023-12-20T08:37:39;19.17;;;3.80;;
13230;SDS011;6681;53.254;10.398;2023-12-20T08:40:08;17.03;;;4.63;;
13230;SDS011;6681;53.254;10.398;2023-12-20T08:42:34;13.63;;;4.13;;
13230;SDS011;6681;53.254;10.398;2023-12-20T08:45:00;13.30;;;4.20;;
13230;SDS011;6681;53.254;10.398;2023-12-20T08:47:26;16.43;;;4.70;;
13230;SDS011;6681;53.254;10.398;2023-12-20T08:49:52;15.53;;;3.70;;
13230;SDS011;6681;53.254;10.398;2023-12-20T08:52:21;8.73;;;4.10;;
13230;SDS011;6681;53.254;10.398;2023-12-20T08:54:48;15.27;;;3.80;;
13230;SDS011;6681;53.254;10.398;2023-12-20T08:57:16;16.00;;;5.63;;
13230;SDS011;6681;53.254;10.398;2023-12-20T08:59:46;16.47;;;5.67;;
13230;SDS011;6681;53.254;10.398;2023-12-20T09:02:12;11.97;;;3.93;;
13230;SDS011;6681;53.254;10.398;2023-12-20T09:04:38;13.17;;;4.33;;
13230;SDS011;6681;53.254;10.398;2023-12-20T09:07:04;15.13;;;3.50;;
13230;SDS011;6681;53.254;10.398;2023-12-20T09:09:30;17.30;;;4.47;;
13230;SDS011;6681;53.254;10.398;2023-12-20T09:11:57;12.33;;;3.33;;
13230;SDS011;6681;53.254;10.398;2023-12-20T09:14:23;15.07;;;4.80;;
13230;SDS011;6681;53.254;10.398;2023-12-20T09:16:48;15.37;;;4.20;;
13230;SDS011;6681;53.254;10.398;2023-12-20T09:19:16;18.00;;;5.27;;
13230;SDS011;6681;53.254;10.398;2023-12-20T09:21:42;14.77;;;4.60;;
13230;SDS011;6681;53.254;10.398;2023-12-20T09:24:07;15.70;;;3.50;;
13230;SDS011;6681;53.254;10.398;2023-12-20T09:26:33;17.53;;;4.10;;
13230;SDS011;6681;53.254;10.398;2023-12-20T09:28:59;16.10;;;3.23;;
13230;SDS011;6681;53.254;10.398;2023-12-20T09:31:25;23.17;;;5.20;;
13230;SDS011;6681;53.254;10.398;2023-12-20T09:33:51;13.20;;;4.50;;
13230;SDS011;6681;53.254;10.398;2023-12-20T09:36:17;21.00;;;5.57;;
13230;SDS011;6681;53.254;10.398;2023-12-20T09:38:46;17.47;;;4.73;;
13230;SDS011;6681;53.254;10.398;2023-12-20T09:41:12;17.53;;;4.87;;
13230;SDS011;6681;53.254;10.398;2023-12-20T09:43:37;9.43;;;4.43;;
13230;SDS011;6681;53.254;10.398;2023-12-20T09:46:05;14.87;;;4.67;;
13230;SDS011;6681;53.254;10.398;2023-12-20T09:48:35;16.03;;;3.90;;
13230;SDS011;6681;53.254;10.398;2023-12-20T09:51:02;12.97;;;4.47;;
13230;SDS011;6681;53.254;10.398;2023-12-20T09:53:27;15.47;;;4.20;;
13230;SDS011;6681;53.254;10.398;2023-12-20T09:55:56;16.33;;;4.40;;
13230;SDS011;6681;53.254;10.398;2023-12-20T09:58:26;18.17;;;3.87;;
13230;SDS011;6681;53.254;10.398;2023-12-20T10:00:52;19.77;;;4.20;;
13230;SDS011;6681;53.254;10.398;2023-12-20T10:03:25;12.37;;;4.03;;
13230;SDS011;6681;53.254;10.398;2023-12-20T10:05:56;15.17;;;3.57;;
13230;SDS011;6681;53.254;10.398;2023-12-20T10:08:23;8.90;;;2.20;;
13230;SDS011;6681;53.254;10.398;2023-12-20T10:10:49;4.03;;;1.87;;
13230;SDS011;6681;53.254;10.398;2023-12-20T10:13:15;7.10;;;1.60;;
13230;SDS011;6681;53.254;10.398;2023-12-20T10:15:41;2.30;;;1.10;;
13230;SDS011;6681;53.254;10.398;2023-12-20T10:18:07;3.77;;;1.30;;
13230;SDS011;6681;53.254;10.398;2023-12-20T10:20:33;7.03;;;0.97;;
13230;SDS011;6681;53.254;10.398;2023-12-20T10:22:59;4.50;;;1.30;;
13230;SDS011;6681;53.254;10.398;2023-12-20T10:25:25;3.07;;;1.10;;
13230;SDS011;6681;53.254;10.398;2023-12-20T10:28:08;4.80;;;1.10;;
13230;SDS011;6681;53.254;10.398;2023-12-20T10:30:33;2.17;;;1.00;;
13230;SDS011;6681;53.254;10.398;2023-12-20T10:32:59;2.80;;;1.27;;
13230;SDS011;6681;53.254;10.398;2023-12-20T10:35:25;2.53;;;0.60;;
13230;SDS011;6681;53.254;10.398;2023-12-20T10:37:51;4.00;;;1.13;;
13230;SDS011;6681;53.254;10.398;2023-12-20T10:40:21;2.63;;;0.77;;
13230;SDS011;6681;53.254;10.398;2023-12-20T10:42:47;0.50;;;0.50;;
13230;SDS011;6681;53.254;10.398;2023-12-20T10:45:14;1.17;;;0.60;;
13230;SDS011;6681;53.254;10.398;2023-12-20T10:47:42;1.73;;;0.70;;
13230;SDS011;6681;53.254;10.398;2023-12-20T10:50:11;8.43;;;1.30;;
13230;SDS011;6681;53.254;10.398;2023-12-20T10:52:37;2.37;;;0.70;;
13230;SDS011;6681;53.254;10.398;2023-12-20T10:55:03;2.00;;;1.00;;
13230;SDS011;6681;53.254;10.398;2023-12-20T10:57:30;1.03;;;0.50;;
13230;SDS011;6681;53.254;10.398;2023-12-20T10:59:56;3.57;;;0.63;;
13230;SDS011;6681;53.254;10.398;2023-12-20T11:02:31;3.57;;;0.40;;
13230;SDS011;6681;53.254;10.398;2023-12-20T11:08:02;1.80;;;0.50;;
13230;SDS011;6681;53.254;10.398;2023-12-20T11:10:39;1.10;;;0.60;;
13230;SDS011;6681;53.254;10.398;2023-12-20T11:13:22;3.50;;;0.80;;
13230;SDS011;6681;53.254;10.398;2023-12-20T11:15:51;1.83;;;0.50;;
13230;SDS011;6681;53.254;10.398;2023-12-20T11:18:17;2.87;;;1.10;;
13230;SDS011;6681;53.254;10.398;2023-12-20T11:20:43;1.07;;;0.57;;
13230;SDS011;6681;53.254;10.398;2023-12-20T11:23:09;3.40;;;0.67;;
13230;SDS011;6681;53.254;10.398;2023-12-20T11:25:56;3.37;;;0.70;;
13230;SDS011;6681;53.254;10.398;2023-12-20T11:28:23;2.07;;;0.67;;
13230;SDS011;6681;53.254;10.398;2023-12-20T11:30:51;1.93;;;0.80;;
13230;SDS011;6681;53.254;10.398;2023-12-20T11:33:21;4.07;;;1.23;;
13230;SDS011;6681;53.254;10.398;2023-12-20T11:35:48;6.03;;;1.53;;
13230;SDS011;6681;53.254;10.398;2023-12-20T11:38:14;10.00;;;0.93;;
13230;SDS011;6681;53.254;10.398;2023-12-20T11:40:41;5.63;;;1.23;;
13230;SDS011;6681;53.254;10.398;2023-12-20T11:43:07;9.57;;;1.27;;
13230;SDS011;6681;53.254;10.398;2023-12-20T11:45:33;4.53;;;1.10;;
13230;SDS011;6681;53.254;10.398;2023-12-20T11:48:00;6.10;;;1.10;;
13230;SDS011;6681;53.254;10.398;2023-12-20T11:50:27;3.50;;;1.87;;
13230;SDS011;6681;53.254;10.398;2023-12-20T11:52:54;4.43;;;1.10;;
13230;SDS011;6681;53.254;10.398;2023-12-20T11:55:21;3.47;;;0.77;;
13230;SDS011;6681;53.254;10.398;2023-12-20T11:57:47;2.00;;;0.80;;
13230;SDS011;6681;53.254;10.398;2023-12-20T12:00:13;8.50;;;1.17;;
13230;SDS011;6681;53.254;10.398;2023-12-20T12:02:39;4.83;;;0.80;;
13230;SDS011;6681;53.254;10.398;2023-12-20T12:05:05;6.93;;;1.13;;
13230;SDS011;6681;53.254;10.398;2023-12-20T12:07:32;11.67;;;1.87;;
13230;SDS011;6681;53.254;10.398;2023-12-20T12:09:58;9.10;;;1.20;;
13230;SDS011;6681;53.254;10.398;2023-12-20T12:12:24;4.57;;;1.13;;
13230;SDS011;6681;53.254;10.398;2023-12-20T12:14:52;3.97;;;1.10;;
13230;SDS011;6681;53.254;10.398;2023-12-20T12:17:18;5.60;;;1.13;;
13230;SDS011;6681;53.254;10.398;2023-12-20T12:19:44;5.63;;;1.73;;
13230;SDS011;6681;53.254;10.398;2023-12-20T12:24:38;11.20;;;2.80;;
13230;SDS011;6681;53.254;10.398;2023-12-20T12:27:11;5.60;;;1.73;;
13230;SDS011;6681;53.254;10.398;2023-12-20T12:29:38;7.30;;;1.30;;
13230;SDS011;6681;53.254;10.398;2023-12-20T12:32:04;5.20;;;1.70;;
13230;SDS011;6681;53.254;10.398;2023-12-20T12:34:34;7.17;;;1.77;;
13230;SDS011;6681;53.254;10.398;2023-12-20T12:37:06;8.13;;;1.90;;
13230;SDS011;6681;53.254;10.398;2023-12-20T12:39:32;4.03;;;1.07;;
13230;SDS011;6681;53.254;10.398;2023-12-20T12:41:57;8.17;;;3.33;;
13230;SDS011;6681;53.254;10.398;2023-12-20T12:44:24;9.93;;;2.23;;
13230;SDS011;6681;53.254;10.398;2023-12-20T12:46:50;10.83;;;2.30;;
13230;SDS011;6681;53.254;10.398;2023-12-20T12:49:18;12.20;;;2.07;;
13230;SDS011;6681;53.254;10.398;2023-12-20T12:51:44;7.13;;;1.70;;
13230;SDS011;6681;53.254;10.398;2023-12-20T12:54:10;9.90;;;1.77;;
13230;SDS011;6681;53.254;10.398;2023-12-20T12:56:35;6.53;;;1.37;;
13230;SDS011;6681;53.254;10.398;2023-12-20T12:59:02;5.33;;;1.10;;
13230;SDS011;6681;53.254;10.398;2023-12-20T13:01:27;7.33;;;2.17;;
13230;SDS011;6681;53.254;10.398;2023-12-20T13:03:53;3.47;;;1.17;;
13230;SDS011;6681;53.254;10.398;2023-12-20T13:06:19;5.27;;;1.20;;
13230;SDS011;6681;53.254;10.398;2023-12-20T13:08:45;9.17;;;2.17;;
13230;SDS011;6681;53.254;10.398;2023-12-20T13:11:11;4.80;;;1.23;;
13230;SDS011;6681;53.254;10.398;2023-12-20T13:13:36;2.37;;;1.50;;
13230;SDS011;6681;53.254;10.398;2023-12-20T13:16:02;7.90;;;1.40;;
13230;SDS011;6681;53.254;10.398;2023-12-20T13:18:28;3.70;;;1.03;;
13230;SDS011;6681;53.254;10.398;2023-12-20T13:20:54;6.97;;;0.97;;
13230;SDS011;6681;53.254;10.398;2023-12-20T13:23:19;13.33;;;1.17;;
13230;SDS011;6681;53.254;10.398;2023-12-20T13:25:45;1.80;;;1.00;;
13230;SDS011;6681;53.254;10.398;2023-12-20T13:28:11;9.30;;;1.70;;
13230;SDS011;6681;53.254;10.398;2023-12-20T13:30:37;2.67;;;1.50;;
13230;SDS011;6681;53.254;10.398;2023-12-20T13:33:03;12.60;;;2.13;;
13230;SDS011;6681;53.254;10.398;2023-12-20T13:35:30;3.30;;;0.80;;
13230;SDS011;6681;53.254;10.398;2023-12-20T13:37:57;4.80;;;1.37;;
13230;SDS011;6681;53.254;10.398;2023-12-20T13:40:23;9.43;;;1.27;;
13230;SDS011;6681;53.254;10.398;2023-12-20T13:42:48;7.50;;;2.63;;
13230;SDS011;6681;53.254;10.398;2023-12-20T13:45:17;11.80;;;2.37;;
13230;SDS011;6681;53.254;10.398;2023-12-20T13:47:42;6.00;;;1.77;;
13230;SDS011;6681;53.254;10.398;2023-12-20T13:50:08;16.63;;;2.50;;
13230;SDS011;6681;53.254;10.398;2023-12-20T13:52:34;4.17;;;1.50;;
13230;SDS011;6681;53.254;10.398;2023-12-20T13:55:00;9.90;;;2.93;;
13230;SDS011;6681;53.254;10.398;2023-12-20T13:57:26;7.53;;;2.10;;
13230;SDS011;6681;53.254;10.398;2023-12-20T13:59:53;9.47;;;2.37;;
13230;SDS011;6681;53.254;10.398;2023-12-20T14:02:19;12.20;;;2.77;;
13230;SDS011;6681;53.254;10.398;2023-12-20T14:04:45;9.53;;;2.37;;
13230;SDS011;6681;53.254;10.398;2023-12-20T14:07:10;11.27;;;3.27;;
13230;SDS011;6681;53.254;10.398;2023-12-20T14:09:36;10.10;;;3.30;;
13230;SDS011;6681;53.254;10.398;2023-12-20T14:12:02;10.27;;;3.53;;
13230;SDS011;6681;53.254;10.398;2023-12-20T14:14:27;13.30;;;3.23;;
13230;SDS011;6681;53.254;10.398;2023-12-20T14:16:53;19.37;;;3.93;;
13230;SDS011;6681;53.254;10.398;2023-12-20T14:19:19;6.83;;;3.00;;
13230;SDS011;6681;53.254;10.398;2023-12-20T14:21:44;9.53;;;3.73;;
13230;SDS011;6681;53.254;10.398;2023-12-20T14:24:12;20.20;;;3.77;;
13230;SDS011;6681;53.254;10.398;2023-12-20T14:26:39;14.27;;;3.30;;
13230;SDS011;6681;53.254;10.398;2023-12-20T14:29:05;18.70;;;2.73;;
13230;SDS011;6681;53.254;10.398;2023-12-20T14:31:32;5.70;;;2.60;;
13230;SDS011;6681;53.254;10.398;2023-12-20T14:33:58;13.90;;;3.23;;
13230;SDS011;6681;53.254;10.398;2023-12-20T14:36:24;13.53;;;3.80;;
13230;SDS011;6681;53.254;10.398;2023-12-20T14:38:50;15.97;;;3.80;;
13230;SDS011;6681;53.254;10.398;2023-12-20T14:41:16;9.43;;;3.83;;
13230;SDS011;6681;53.254;10.398;2023-12-20T14:43:43;7.50;;;3.83;;